River Ridge, Louisiana
Current Conditions -  °F | °C
As of 6:53 AM on Thursday 18 Dec 2014 (Local Time) from KMSY Reporting Station
Broken Clouds Broken Clouds  
Wind Chill: 53°   Ceiling: 18000
Heat Index: 53°   Visibility: 10mi
Dew Point: 47°   Wind: 7mph
Humidity: 80%   Direction: 90°E
Pressure: 30.16"   Gusts: NA
Location:  29.9536°N, 90.2034°W
Report Text: KMSY 181253Z 09006KT 10SM FEW038 BKN180 BKN250 12/08 A3016 RMK AO2 SLP217 T01170083
Loading
Personal Weather Stations






























Interactive Weather Map New forecast layout! Learn more

10-Day Weather Forecast

Advertisements
Track Severe Weather on mobile